createdAt,value
2019-01-19T00:01:27.689Z,79.43
2019-01-19T00:04:29.636Z,78.19
2019-01-19T00:07:16.515Z,77.78
2019-01-19T00:09:54.387Z,77.97
2019-01-19T00:12:32.251Z,77.84
2019-01-19T00:15:03.198Z,78.00
2019-01-19T00:17:48.907Z,78.09
2019-01-19T00:20:20.032Z,77.96
2019-01-19T00:23:05.658Z,78.12
2019-01-19T00:25:55.538Z,78.98
2019-01-19T00:28:30.342Z,79.51
2019-01-19T00:31:06.189Z,78.16
2019-01-19T00:33:53.527Z,76.78
2019-01-19T00:36:46.235Z,76.67
2019-01-19T00:39:33.102Z,76.92
2019-01-19T00:42:28.917Z,77.14
2019-01-19T00:45:15.909Z,77.32
2019-01-19T00:47:56.941Z,77.38
2019-01-19T00:50:37.463Z,77.12
2019-01-19T00:53:07.598Z,77.16
2019-01-19T00:56:06.853Z,77.58
2019-01-19T00:58:48.160Z,77.96
2019-01-19T01:01:43.910Z,77.65
2019-01-19T01:04:33.559Z,77.24
2019-01-19T01:07:14.655Z,77.74
2019-01-19T01:09:54.519Z,77.67
2019-01-19T01:12:59.603Z,77.49
2019-01-19T01:15:35.883Z,78.21
2019-01-19T01:18:19.227Z,78.85
2019-01-19T01:21:06.487Z,77.81
2019-01-19T01:23:52.186Z,77.84
2019-01-19T01:26:37.788Z,77.89
2019-01-19T01:29:24.774Z,78.37
2019-01-19T01:32:04.365Z,79.14
2019-01-19T01:35:06.651Z,78.77
2019-01-19T01:37:49.640Z,78.99
2019-01-19T01:40:21.690Z,79.44
2019-01-19T01:43:05.161Z,79.84
2019-01-19T01:45:58.402Z,79.60
2019-01-19T01:48:36.009Z,78.76
2019-01-19T01:51:28.910Z,78.01
2019-01-19T01:54:11.075Z,77.69
2019-01-19T01:56:38.544Z,77.69
2019-01-19T01:59:17.552Z,78.24
2019-01-19T02:01:51.482Z,77.41
2019-01-19T02:04:32.534Z,77.50
2019-01-19T02:07:34.573Z,77.44
2019-01-19T02:10:24.028Z,77.42
2019-01-19T02:13:29.098Z,78.48
2019-01-19T02:16:14.994Z,77.87
2019-01-19T02:19:19.703Z,77.83
2019-01-19T02:22:05.506Z,78.16
2019-01-19T02:24:46.678Z,79.35
2019-01-19T02:27:30.234Z,79.80
2019-01-19T02:30:19.831Z,79.95
2019-01-19T02:32:50.427Z,79.92
2019-01-19T02:35:25.328Z,81.09
2019-01-19T02:38:06.327Z,81.84
2019-01-19T02:40:40.119Z,81.92
2019-01-19T02:43:29.759Z,81.79
2019-01-19T02:46:19.383Z,81.24
2019-01-19T02:49:04.390Z,81.06
2019-01-19T02:51:45.824Z,80.90
2019-01-19T02:54:28.247Z,80.71
2019-01-19T02:57:27.408Z,81.08
2019-01-19T03:00:00.171Z,81.37
2019-01-19T03:02:47.075Z,81.12
2019-01-19T03:05:24.118Z,80.65
2019-01-19T03:08:20.060Z,79.96
2019-01-19T03:11:08.879Z,80.56
2019-01-19T03:13:55.711Z,81.31
2019-01-19T03:16:48.722Z,81.09
2019-01-19T03:19:35.576Z,81.01
2019-01-19T03:22:21.438Z,80.87
2019-01-19T03:25:11.293Z,80.48
2019-01-19T03:27:46.205Z,80.32
2019-01-19T03:30:33.037Z,80.09
2019-01-19T03:33:34.959Z,80.01
2019-01-19T03:36:08.114Z,80.18
2019-01-19T03:38:55.327Z,80.30
2019-01-19T03:41:41.191Z,80.86
2019-01-19T03:44:31.071Z,81.29
2019-01-19T03:47:16.748Z,81.93
2019-01-19T03:50:09.813Z,83.31
2019-01-19T03:52:59.785Z,83.80
2019-01-19T03:55:52.609Z,83.75
2019-01-19T03:58:32.885Z,83.90
2019-01-19T04:01:32.098Z,83.43
2019-01-19T04:04:17.733Z,83.20
2019-01-19T04:07:07.641Z,83.04
2019-01-19T04:09:56.464Z,83.30
2019-01-19T04:12:43.347Z,83.68
2019-01-19T04:15:23.236Z,84.33
2019-01-19T04:17:56.046Z,84.66
2019-01-19T04:20:46.084Z,84.85
2019-01-19T04:23:13.464Z,84.76
2019-01-19T04:25:51.968Z,84.91
2019-01-19T04:28:21.054Z,84.91
2019-01-19T04:30:51.392Z,83.70
2019-01-19T04:33:18.771Z,83.09
2019-01-19T04:35:46.243Z,82.64
2019-01-19T04:38:13.587Z,82.57
2019-01-19T04:40:40.926Z,82.49
2019-01-19T04:43:08.303Z,82.32
2019-01-19T04:45:35.643Z,81.87
2019-01-19T04:48:03.314Z,81.67
2019-01-19T04:50:30.750Z,81.53
2019-01-19T04:52:58.176Z,81.40
2019-01-19T04:55:25.558Z,80.80
2019-01-19T04:57:52.903Z,79.77
2019-01-19T05:00:20.282Z,79.64
2019-01-19T05:02:47.631Z,79.41
2019-01-19T05:05:14.983Z,79.20
2019-01-19T05:07:42.404Z,79.49
2019-01-19T05:10:09.899Z,79.92
2019-01-19T05:12:37.373Z,80.00
2019-01-19T05:15:06.538Z,79.67
2019-01-19T05:17:33.906Z,79.34
2019-01-19T05:20:01.270Z,79.28
2019-01-19T05:22:28.621Z,78.95
2019-01-19T05:24:56.010Z,78.78
2019-01-19T05:27:23.431Z,78.73
2019-01-19T05:29:50.779Z,78.43
2019-01-19T05:32:18.300Z,77.91
2019-01-19T05:34:45.761Z,77.93
2019-01-19T05:37:13.124Z,77.14
2019-01-19T05:39:40.486Z,77.17
2019-01-19T05:42:07.840Z,77.59
2019-01-19T05:44:35.230Z,77.35
2019-01-19T05:47:02.582Z,77.49
2019-01-19T05:49:29.968Z,76.97
2019-01-19T05:51:57.444Z,77.62
2019-01-19T05:54:24.823Z,78.43
2019-01-19T05:56:52.198Z,80.56
2019-01-19T05:59:19.546Z,81.41
2019-01-19T06:01:46.994Z,81.00
2019-01-19T06:04:14.576Z,81.33
2019-01-19T06:06:46.593Z,81.59
2019-01-19T06:09:11.331Z,81.28
2019-01-19T06:11:38.719Z,81.07
2019-01-19T06:14:06.563Z,80.94
2019-01-19T06:16:34.003Z,80.44
2019-01-19T06:19:01.479Z,80.12
2019-01-19T06:21:32.208Z,80.05
2019-01-19T06:23:59.565Z,80.24
2019-01-19T06:26:27.016Z,80.87
2019-01-19T06:28:54.492Z,81.26
2019-01-19T06:31:21.855Z,81.37
2019-01-19T06:33:49.242Z,80.96
2019-01-19T06:36:16.663Z,80.22
2019-01-19T06:38:43.995Z,79.98
2019-01-19T06:41:11.372Z,80.08
2019-01-19T06:43:38.760Z,80.08
2019-01-19T06:46:06.243Z,80.27
2019-01-19T06:48:33.586Z,79.72
2019-01-19T06:51:01.026Z,79.44
2019-01-19T06:53:28.423Z,78.91
2019-01-19T06:55:55.884Z,78.77
2019-01-19T06:58:23.357Z,77.94
2019-01-19T07:00:50.835Z,80.02
2019-01-19T07:03:18.210Z,81.56
2019-01-19T07:05:45.678Z,82.78
2019-01-19T07:08:13.018Z,81.08
2019-01-19T07:10:40.395Z,79.45
2019-01-19T07:13:07.788Z,78.62
2019-01-19T07:15:35.147Z,77.79
2019-01-19T07:18:02.527Z,77.67
2019-01-19T07:20:31.034Z,77.73
2019-01-19T07:22:58.602Z,78.28
2019-01-19T07:25:26.057Z,78.66
2019-01-19T07:27:53.442Z,78.24
2019-01-19T07:30:20.963Z,78.19
2019-01-19T07:32:48.439Z,78.45
2019-01-19T07:35:16.095Z,79.24
2019-01-19T07:37:43.513Z,79.58
2019-01-19T07:40:12.133Z,80.29
2019-01-19T07:42:40.578Z,80.53
2019-01-19T07:45:08.271Z,81.05
2019-01-19T07:47:35.968Z,81.29
2019-01-19T07:50:03.898Z,81.47
2019-01-19T07:52:31.261Z,81.51
2019-01-19T07:54:58.940Z,81.66
2019-01-19T07:57:31.266Z,81.78
2019-01-19T07:59:55.630Z,81.49
2019-01-19T08:02:23.020Z,81.34
2019-01-19T08:04:50.514Z,81.39
2019-01-19T08:07:17.921Z,81.35
2019-01-19T08:09:45.302Z,81.14
2019-01-19T08:12:12.881Z,80.69
2019-01-19T08:14:40.329Z,80.45
2019-01-19T08:17:07.707Z,79.95
2019-01-19T08:19:35.130Z,79.55
2019-01-19T08:22:02.590Z,79.30
2019-01-19T08:24:29.990Z,79.33
2019-01-19T08:26:57.391Z,79.28
2019-01-19T08:29:24.763Z,79.29
2019-01-19T08:31:52.166Z,79.21
2019-01-19T08:34:19.566Z,79.04
2019-01-19T08:36:46.985Z,78.93
2019-01-19T08:39:14.371Z,78.68
2019-01-19T08:41:41.842Z,78.62
2019-01-19T08:44:09.203Z,78.65
2019-01-19T08:46:36.606Z,78.35
2019-01-19T08:49:03.969Z,78.09
2019-01-19T08:51:31.383Z,77.99
2019-01-19T08:53:58.855Z,77.96
2019-01-19T08:56:26.585Z,78.27
2019-01-19T08:58:53.967Z,78.11
2019-01-19T09:01:21.383Z,77.17
2019-01-19T09:03:48.780Z,76.05
2019-01-19T09:06:16.250Z,76.47
2019-01-19T09:08:43.660Z,76.63
2019-01-19T09:11:11.053Z,78.04
2019-01-19T09:13:38.469Z,76.81
2019-01-19T09:16:12.886Z,76.45
2019-01-19T09:18:40.392Z,75.68
2019-01-19T09:21:07.878Z,75.70
2019-01-19T09:23:40.428Z,75.68
2019-01-19T09:26:09.472Z,74.89
2019-01-19T09:28:37.074Z,74.15
2019-01-19T09:31:04.498Z,73.21
2019-01-19T09:33:31.860Z,72.61
2019-01-19T09:35:59.238Z,72.48
2019-01-19T09:38:26.676Z,72.65
2019-01-19T09:40:54.140Z,72.76
2019-01-19T09:43:21.627Z,72.38
2019-01-19T09:45:49.105Z,71.76
2019-01-19T09:48:16.566Z,71.58
2019-01-19T09:50:43.987Z,71.04
2019-01-19T09:53:11.414Z,71.02
2019-01-19T09:55:38.825Z,70.51
2019-01-19T09:58:06.166Z,70.84
2019-01-19T10:00:36.668Z,70.59
2019-01-19T10:03:02.956Z,70.39
2019-01-19T10:05:30.366Z,71.42
2019-01-19T10:07:57.760Z,71.02
2019-01-19T10:10:25.211Z,71.00
2019-01-19T10:12:53.001Z,71.27
2019-01-19T10:15:20.432Z,71.26
2019-01-19T10:17:47.842Z,71.19
2019-01-19T10:20:16.850Z,71.31
2019-01-19T10:22:44.262Z,71.83
2019-01-19T10:25:11.811Z,71.67
2019-01-19T10:27:39.308Z,71.88
2019-01-19T10:30:08.351Z,71.88
2019-01-19T10:32:35.883Z,71.81
2019-01-19T10:35:04.456Z,72.27
2019-01-19T10:37:31.845Z,72.38
2019-01-19T10:39:59.307Z,72.20
2019-01-19T10:42:26.776Z,71.30
2019-01-19T10:44:54.256Z,70.34
2019-01-19T10:47:21.744Z,70.03
2019-01-19T10:49:49.123Z,68.60
2019-01-19T10:52:16.541Z,67.63
2019-01-19T10:54:44.029Z,67.06
2019-01-19T10:57:11.506Z,65.68
2019-01-19T10:59:38.908Z,64.13
2019-01-19T11:02:06.274Z,62.05
2019-01-19T11:04:33.679Z,60.68
2019-01-19T11:07:01.095Z,57.77
2019-01-19T11:09:28.514Z,52.21
2019-01-19T11:11:55.938Z,48.42
2019-01-19T11:14:23.352Z,43.08
2019-01-19T11:16:50.834Z,39.96
2019-01-19T11:19:18.238Z,36.19
2019-01-19T11:21:45.626Z,33.09
2019-01-19T11:24:13.030Z,34.76
2019-01-19T11:26:40.382Z,35.56
2019-01-19T11:29:07.866Z,33.08
2019-01-19T11:31:35.214Z,33.29
2019-01-19T11:34:02.968Z,32.31
2019-01-19T11:36:30.488Z,31.26
2019-01-19T11:38:57.851Z,28.84
2019-01-19T11:41:25.251Z,31.20
2019-01-19T11:43:52.630Z,31.57
2019-01-19T11:46:20.367Z,33.44
2019-01-19T11:48:47.731Z,34.53
2019-01-19T11:51:15.228Z,33.93
2019-01-19T11:53:42.678Z,36.82
2019-01-19T11:56:12.319Z,39.46
2019-01-19T11:58:39.350Z,41.03
2019-01-19T12:01:07.326Z,43.37
2019-01-19T12:03:34.819Z,44.77
2019-01-19T12:06:02.591Z,46.99
2019-01-19T12:08:30.076Z,48.37
2019-01-19T12:10:57.477Z,49.82
2019-01-19T12:13:24.853Z,51.81
2019-01-19T12:15:52.251Z,53.44
2019-01-19T12:18:19.611Z,54.25
2019-01-19T12:20:48.047Z,54.81
2019-01-19T12:23:15.469Z,55.52
2019-01-19T12:25:42.922Z,55.85
2019-01-19T12:28:10.421Z,56.82
2019-01-19T12:30:37.797Z,57.57
2019-01-19T12:33:05.256Z,57.72
2019-01-19T12:35:32.738Z,57.54
2019-01-19T12:38:00.213Z,58.41
2019-01-19T12:40:27.619Z,59.10
2019-01-19T12:42:56.175Z,59.41
2019-01-19T12:45:28.252Z,59.73
2019-01-19T12:47:55.630Z,60.11
2019-01-19T12:50:23.487Z,59.87
2019-01-19T12:52:51.071Z,60.42
2019-01-19T12:55:18.500Z,61.27
2019-01-19T12:57:45.890Z,61.99
2019-01-19T13:00:14.728Z,62.60
2019-01-19T13:02:42.229Z,62.47
2019-01-19T13:05:12.382Z,62.73
2019-01-19T13:07:39.819Z,62.89
2019-01-19T13:10:11.145Z,63.22
2019-01-19T13:12:41.318Z,63.34
2019-01-19T13:15:18.939Z,63.83
2019-01-19T13:17:55.523Z,64.16
2019-01-19T13:20:51.591Z,64.18
2019-01-19T13:23:47.530Z,64.24
2019-01-19T13:26:40.226Z,63.87
2019-01-19T13:29:27.202Z,64.57
2019-01-19T13:32:29.230Z,64.57
2019-01-19T13:35:21.978Z,64.98
2019-01-19T13:38:14.753Z,65.03
2019-01-19T13:41:04.455Z,64.83
2019-01-19T13:43:57.866Z,64.62
2019-01-19T13:46:30.419Z,64.96
2019-01-19T13:49:23.171Z,65.26
2019-01-19T13:52:15.425Z,65.55
2019-01-19T13:55:20.472Z,65.49
2019-01-19T13:58:13.435Z,65.55
2019-01-19T14:01:09.507Z,65.46
2019-01-19T14:03:42.340Z,65.44
2019-01-19T14:06:31.474Z,65.03
2019-01-19T14:09:17.498Z,65.26
2019-01-19T14:12:19.787Z,65.66
2019-01-19T14:14:52.090Z,65.72
2019-01-19T14:17:38.987Z,65.54
2019-01-19T14:20:44.627Z,65.71
2019-01-19T14:23:16.821Z,65.74
2019-01-19T14:25:47.815Z,65.89
2019-01-19T14:28:37.974Z,65.64
2019-01-19T14:31:13.065Z,65.58
2019-01-19T14:33:46.410Z,65.80
2019-01-19T14:36:33.349Z,65.80
2019-01-19T14:39:20.243Z,66.39
2019-01-19T14:41:51.028Z,66.48
2019-01-19T14:44:31.548Z,66.54
2019-01-19T14:47:04.481Z,66.62
2019-01-19T14:49:50.264Z,66.91
2019-01-19T14:52:46.124Z,66.26
2019-01-19T14:55:18.870Z,66.56
2019-01-19T14:57:49.198Z,66.82
2019-01-19T15:00:29.487Z,66.61
2019-01-19T15:03:13.430Z,67.03
2019-01-19T15:06:03.299Z,67.30
2019-01-19T15:08:42.216Z,67.16
2019-01-19T15:11:28.243Z,67.32
2019-01-19T15:13:58.834Z,68.85
2019-01-19T15:16:49.874Z,68.51
2019-01-19T15:19:52.283Z,68.24
2019-01-19T15:22:42.016Z,68.16
2019-01-19T15:25:27.639Z,68.64
2019-01-19T15:28:08.375Z,68.82
2019-01-19T15:30:42.631Z,68.63
2019-01-19T15:33:29.542Z,68.97
2019-01-19T15:36:28.651Z,68.91
2019-01-19T15:39:00.683Z,69.22
2019-01-19T15:41:33.819Z,69.18
2019-01-19T15:44:10.931Z,69.34
2019-01-19T15:47:06.675Z,69.16
2019-01-19T15:49:53.587Z,69.08
2019-01-19T15:52:43.562Z,69.27
2019-01-19T15:55:33.406Z,69.73
2019-01-19T15:58:22.921Z,69.51
2019-01-19T16:01:09.888Z,70.23
2019-01-19T16:03:59.874Z,70.06
2019-01-19T16:06:49.712Z,70.90
2019-01-19T16:09:35.548Z,71.90
2019-01-19T16:12:06.708Z,71.70
2019-01-19T16:14:56.666Z,71.87
2019-01-19T16:17:40.855Z,71.11
2019-01-19T16:20:22.528Z,72.05
2019-01-19T16:22:59.019Z,71.69
2019-01-19T16:25:50.448Z,71.96
2019-01-19T16:28:37.875Z,72.84
2019-01-19T16:31:27.898Z,72.46
2019-01-19T16:34:20.743Z,71.46
2019-01-19T16:37:03.719Z,71.65
2019-01-19T16:39:49.142Z,73.09
2019-01-19T16:42:28.044Z,72.44
2019-01-19T16:44:59.870Z,73.00
2019-01-19T16:47:38.030Z,70.89
2019-01-19T16:50:25.831Z,71.52
2019-01-19T16:52:58.277Z,71.48
2019-01-19T16:55:45.182Z,71.19
2019-01-19T16:58:24.405Z,71.41
2019-01-19T17:01:29.772Z,71.12
2019-01-19T17:04:16.038Z,71.81
2019-01-19T17:06:46.717Z,71.66
2019-01-19T17:09:22.451Z,71.90
2019-01-19T17:12:06.852Z,72.38
2019-01-19T17:14:52.477Z,72.81
2019-01-19T17:17:42.196Z,73.24
2019-01-19T17:20:18.293Z,73.66
2019-01-19T17:23:07.411Z,73.90
2019-01-19T17:26:09.506Z,74.15
2019-01-19T17:28:44.218Z,73.92
2019-01-19T17:31:18.591Z,74.32
2019-01-19T17:33:49.080Z,74.81
2019-01-19T17:36:29.418Z,74.88
2019-01-19T17:39:22.085Z,75.14
2019-01-19T17:42:01.482Z,74.81
2019-01-19T17:44:43.794Z,74.98
2019-01-19T17:47:14.729Z,74.90
2019-01-19T17:49:54.798Z,74.99
2019-01-19T17:52:41.698Z,75.51
2019-01-19T17:55:28.649Z,76.42
2019-01-19T17:58:18.285Z,76.64
2019-01-19T18:00:53.000Z,76.98
2019-01-19T18:03:42.930Z,76.85
2019-01-19T18:06:23.388Z,76.63
2019-01-19T18:09:10.349Z,76.90
2019-01-19T18:11:43.817Z,77.21
2019-01-19T18:14:18.083Z,77.69
2019-01-19T18:16:54.588Z,77.85
2019-01-19T18:19:50.875Z,78.12
2019-01-19T18:22:26.162Z,78.14
2019-01-19T18:25:16.474Z,78.25
2019-01-19T18:28:06.501Z,78.35
2019-01-19T18:31:02.683Z,78.33
2019-01-19T18:33:39.368Z,78.56
2019-01-19T18:36:25.221Z,78.83
2019-01-19T18:39:21.375Z,78.73
2019-01-19T18:41:56.532Z,78.42
2019-01-19T18:44:49.527Z,78.63
2019-01-19T18:47:31.821Z,78.34
2019-01-19T18:50:22.297Z,78.37
2019-01-19T18:53:11.965Z,78.75
2019-01-19T18:56:01.676Z,79.08
2019-01-19T18:58:47.520Z,78.88
2019-01-19T19:01:37.493Z,78.62
2019-01-19T19:04:10.746Z,78.66
2019-01-19T19:07:00.687Z,78.71
2019-01-19T19:09:53.633Z,78.41
2019-01-19T19:12:34.809Z,78.25
2019-01-19T19:15:22.541Z,78.03
2019-01-19T19:18:15.576Z,77.96
2019-01-19T19:20:58.444Z,78.34
2019-01-19T19:23:41.699Z,78.68
2019-01-19T19:26:15.342Z,78.72
2019-01-19T19:29:04.844Z,78.88
2019-01-19T19:31:41.023Z,78.93
2019-01-19T19:34:18.035Z,78.59
2019-01-19T19:37:08.186Z,78.48
2019-01-19T19:39:58.161Z,78.54
2019-01-19T19:42:43.960Z,78.87
2019-01-19T19:45:29.661Z,79.14
2019-01-19T19:48:19.815Z,79.21
2019-01-19T19:51:21.874Z,79.03
2019-01-19T19:53:49.256Z,78.88
2019-01-19T19:56:16.131Z,78.88
2019-01-19T19:58:43.582Z,78.69
2019-01-19T20:01:11.025Z,78.36
2019-01-19T20:03:38.530Z,77.81
2019-01-19T20:06:05.902Z,77.69
2019-01-19T20:08:33.423Z,77.52
2019-01-19T20:11:01.341Z,77.30
2019-01-19T20:13:28.728Z,77.52
2019-01-19T20:15:56.294Z,77.30
2019-01-19T20:18:23.790Z,76.84
2019-01-19T20:20:51.179Z,76.79
2019-01-19T20:23:18.600Z,76.69
2019-01-19T20:25:46.094Z,76.83
2019-01-19T20:28:13.475Z,76.47
2019-01-19T20:30:40.900Z,76.32
2019-01-19T20:33:08.304Z,76.37
2019-01-19T20:35:35.782Z,76.08
2019-01-19T20:38:03.315Z,76.13
2019-01-19T20:40:30.687Z,75.96
2019-01-19T20:42:58.065Z,75.97
2019-01-19T20:45:25.574Z,75.92
2019-01-19T20:47:52.983Z,76.16
2019-01-19T20:50:20.486Z,76.27
2019-01-19T20:52:47.979Z,76.17
2019-01-19T20:55:15.569Z,75.80
2019-01-19T20:57:42.971Z,75.64
2019-01-19T21:00:13.140Z,75.45
2019-01-19T21:02:40.545Z,75.26
2019-01-19T21:05:07.940Z,75.25
2019-01-19T21:07:35.368Z,75.55
2019-01-19T21:10:03.676Z,75.45
2019-01-19T21:12:31.077Z,75.83
2019-01-19T21:14:58.601Z,75.98
2019-01-19T21:17:26.124Z,76.28
2019-01-19T21:19:53.500Z,76.28
2019-01-19T21:22:20.909Z,75.74
2019-01-19T21:24:48.318Z,75.38
2019-01-19T21:27:15.687Z,75.33
2019-01-19T21:29:43.106Z,75.12
2019-01-19T21:32:10.611Z,74.88
2019-01-19T21:34:38.102Z,74.76
2019-01-19T21:37:05.548Z,74.57
2019-01-19T21:39:32.958Z,74.56
2019-01-19T21:42:00.338Z,74.90
2019-01-19T21:44:27.763Z,75.00
2019-01-19T21:46:55.242Z,74.79
2019-01-19T21:49:22.762Z,74.81
2019-01-19T21:51:50.250Z,75.05
2019-01-19T21:54:17.996Z,75.34
2019-01-19T21:56:45.434Z,75.57
2019-01-19T21:59:12.820Z,75.81
2019-01-19T22:01:40.222Z,75.67
2019-01-19T22:04:07.723Z,75.61
2019-01-19T22:06:35.177Z,75.68
2019-01-19T22:09:04.443Z,75.55
2019-01-19T22:11:31.894Z,75.59
2019-01-19T22:13:59.385Z,75.81
2019-01-19T22:16:26.742Z,75.98
2019-01-19T22:18:54.166Z,76.32
2019-01-19T22:21:21.570Z,76.55
2019-01-19T22:23:49.056Z,76.67
2019-01-19T22:26:18.495Z,76.79
2019-01-19T22:28:45.872Z,76.59
2019-01-19T22:31:13.241Z,76.56
2019-01-19T22:33:40.759Z,76.63
2019-01-19T22:36:08.179Z,76.46
2019-01-19T22:38:35.586Z,76.22
2019-01-19T22:41:02.968Z,76.19
2019-01-19T22:43:31.421Z,76.38
2019-01-19T22:45:58.831Z,76.45
2019-01-19T22:48:26.209Z,76.75
2019-01-19T22:50:53.596Z,76.92
2019-01-19T22:53:21.198Z,76.59
2019-01-19T22:55:48.783Z,76.33
2019-01-19T22:58:16.194Z,76.16
2019-01-19T23:01:05.897Z,75.86
2019-01-19T23:03:34.651Z,75.87
2019-01-19T23:06:02.103Z,75.85
2019-01-19T23:08:29.524Z,76.01
2019-01-19T23:11:01.116Z,75.95
2019-01-19T23:13:26.260Z,76.02
2019-01-19T23:15:54.025Z,76.16
2019-01-19T23:18:21.538Z,76.38
2019-01-19T23:20:49.062Z,76.62
2019-01-19T23:23:16.558Z,77.03
2019-01-19T23:25:43.938Z,77.04
2019-01-19T23:28:11.358Z,77.40
2019-01-19T23:30:38.877Z,77.72
2019-01-19T23:33:06.467Z,78.29
2019-01-19T23:35:33.883Z,78.99
2019-01-19T23:38:01.313Z,78.91
2019-01-19T23:40:28.794Z,79.12
2019-01-19T23:42:56.266Z,79.62
2019-01-19T23:45:23.758Z,80.34
2019-01-19T23:47:51.218Z,80.97
2019-01-19T23:50:18.737Z,81.07
2019-01-19T23:52:46.122Z,81.48
2019-01-19T23:55:13.653Z,81.67
2019-01-19T23:57:41.064Z,81.56
